createdAt,value
2017-08-28T00:00:32.611Z,0
2017-08-28T00:01:34.014Z,0
2017-08-28T00:02:35.418Z,0
2017-08-28T00:03:36.829Z,0
2017-08-28T00:04:38.228Z,0
2017-08-28T00:05:39.630Z,0
2017-08-28T00:06:41.048Z,0
2017-08-28T00:07:42.450Z,0
2017-08-28T00:08:43.931Z,0
2017-08-28T00:09:45.340Z,0
2017-08-28T00:10:46.810Z,0
2017-08-28T00:11:48.213Z,0
2017-08-28T00:12:49.691Z,0
2017-08-28T00:13:51.090Z,0
2017-08-28T00:14:52.573Z,0
2017-08-28T00:15:53.976Z,0
2017-08-28T00:16:55.450Z,0
2017-08-28T00:17:56.851Z,0
2017-08-28T00:18:58.333Z,0
2017-08-28T00:19:59.735Z,0
2017-08-28T00:21:01.133Z,0
2017-08-28T00:22:02.552Z,0
2017-08-28T00:23:03.951Z,0
2017-08-28T00:24:05.353Z,0
2017-08-28T00:25:06.775Z,0
2017-08-28T00:26:08.187Z,0
2017-08-28T00:27:09.673Z,0
2017-08-28T00:28:11.082Z,0
2017-08-28T00:29:12.532Z,0
2017-08-28T00:30:13.932Z,0
2017-08-28T00:31:15.332Z,0
2017-08-28T00:32:16.755Z,0
2017-08-28T00:33:18.154Z,0
2017-08-28T00:34:19.557Z,0
2017-08-28T00:35:21.082Z,0
2017-08-28T00:36:22.503Z,0
2017-08-28T00:37:23.890Z,0
2017-08-28T00:38:25.391Z,0
2017-08-28T00:39:26.802Z,0
2017-08-28T00:40:28.198Z,0
2017-08-28T00:41:29.610Z,0
2017-08-28T00:42:31.008Z,0
2017-08-28T00:43:32.520Z,0
2017-08-28T00:44:33.927Z,0
2017-08-28T00:45:35.379Z,0
2017-08-28T00:46:36.784Z,0
2017-08-28T00:47:38.181Z,0
2017-08-28T00:48:39.596Z,0
2017-08-28T00:49:41.014Z,0
2017-08-28T00:50:42.415Z,0
2017-08-28T00:51:43.912Z,0
2017-08-28T00:52:45.312Z,0
2017-08-28T00:53:46.795Z,0
2017-08-28T00:54:48.193Z,0
2017-08-28T00:55:49.676Z,0
2017-08-28T00:56:51.076Z,0
2017-08-28T00:57:52.473Z,0
2017-08-28T00:58:53.894Z,0
2017-08-28T00:59:55.293Z,0
2017-08-28T01:00:56.689Z,0
2017-08-28T01:01:58.113Z,0
2017-08-28T01:02:59.516Z,0
2017-08-28T01:04:00.917Z,0
2017-08-28T01:05:02.439Z,0
2017-08-28T01:06:03.834Z,0
2017-08-28T01:07:05.243Z,0
2017-08-28T01:08:06.673Z,0
2017-08-28T01:09:08.057Z,0
2017-08-28T01:10:09.532Z,0
2017-08-28T01:11:10.933Z,0
2017-08-28T01:12:12.331Z,0
2017-08-28T01:13:13.752Z,0
2017-08-28T01:14:15.151Z,0
2017-08-28T01:15:16.576Z,0
2017-08-28T01:16:18.071Z,0
2017-08-28T01:17:19.472Z,0
2017-08-28T01:18:20.872Z,0
2017-08-28T01:19:22.291Z,0
2017-08-28T01:20:23.690Z,0
2017-08-28T01:21:25.087Z,0
2017-08-28T01:22:26.514Z,0
2017-08-28T01:23:27.910Z,0
2017-08-28T01:24:29.311Z,0
2017-08-28T01:25:30.726Z,0
2017-08-28T01:26:32.127Z,0
2017-08-28T01:27:33.525Z,0
2017-08-28T01:28:34.950Z,0
2017-08-28T01:29:36.350Z,0
2017-08-28T01:30:37.826Z,0
2017-08-28T01:31:39.221Z,0
2017-08-28T01:32:40.621Z,0
2017-08-28T01:33:42.044Z,0
2017-08-28T01:34:43.445Z,0
2017-08-28T01:35:44.840Z,0
2017-08-28T01:36:46.263Z,0
2017-08-28T01:37:47.662Z,0
2017-08-28T01:38:49.144Z,0
2017-08-28T01:39:50.542Z,0
2017-08-28T01:40:52.034Z,0
2017-08-28T01:41:53.429Z,0
2017-08-28T01:42:54.904Z,0
2017-08-28T01:43:56.300Z,0
2017-08-28T01:44:57.786Z,0
2017-08-28T01:45:59.184Z,0
2017-08-28T01:47:00.583Z,0
2017-08-28T01:48:02.005Z,0
2017-08-28T01:49:03.407Z,0
2017-08-28T01:50:04.819Z,0
2017-08-28T01:51:06.326Z,0
2017-08-28T01:52:07.727Z,0
2017-08-28T01:53:09.124Z,0
2017-08-28T01:54:10.546Z,0
2017-08-28T01:55:11.967Z,0
2017-08-28T01:56:13.424Z,0
2017-08-28T01:57:14.824Z,0
2017-08-28T01:58:16.307Z,0
2017-08-28T01:59:17.704Z,0
2017-08-28T02:00:19.110Z,0
2017-08-28T02:01:20.507Z,0
2017-08-28T02:02:21.910Z,0
2017-08-28T02:03:23.456Z,0
2017-08-28T02:04:24.836Z,0
2017-08-28T02:05:26.235Z,0
2017-08-28T02:06:27.745Z,0
2017-08-28T02:07:29.124Z,0
2017-08-28T02:08:30.626Z,0
2017-08-28T02:09:32.041Z,0
2017-08-28T02:10:33.483Z,0
2017-08-28T02:11:34.883Z,0
2017-08-28T02:12:36.369Z,0
2017-08-28T02:13:37.769Z,0
2017-08-28T02:14:39.248Z,0
2017-08-28T02:15:40.646Z,0
2017-08-28T02:16:42.129Z,0
2017-08-28T02:17:43.527Z,0
2017-08-28T02:18:45.009Z,0
2017-08-28T02:19:46.406Z,0
2017-08-28T02:20:47.890Z,0
2017-08-28T02:21:49.295Z,0
2017-08-28T02:22:50.770Z,0
2017-08-28T02:23:52.169Z,0
2017-08-28T02:24:53.658Z,0
2017-08-28T02:25:55.060Z,0
2017-08-28T02:26:56.540Z,0
2017-08-28T02:27:57.934Z,0
2017-08-28T02:28:59.415Z,0
2017-08-28T02:30:00.828Z,0
2017-08-28T02:31:02.297Z,0
2017-08-28T02:32:03.695Z,0
2017-08-28T02:33:05.175Z,0
2017-08-28T02:34:06.572Z,0
2017-08-28T02:35:08.069Z,0
2017-08-28T02:36:09.468Z,0
2017-08-28T02:37:10.865Z,0
2017-08-28T02:38:12.382Z,0
2017-08-28T02:39:13.784Z,0
2017-08-28T02:40:15.182Z,0
2017-08-28T02:41:16.626Z,0
2017-08-28T02:42:18.003Z,0
2017-08-28T02:43:19.406Z,0
2017-08-28T02:44:20.933Z,0
2017-08-28T02:45:22.361Z,0
2017-08-28T02:46:23.797Z,0
2017-08-28T02:47:25.216Z,0
2017-08-28T02:48:26.615Z,0
2017-08-28T02:49:28.118Z,0
2017-08-28T02:50:29.517Z,0
2017-08-28T02:51:30.914Z,0
2017-08-28T02:52:32.337Z,0
2017-08-28T02:53:33.736Z,0
2017-08-28T02:54:35.133Z,0
2017-08-28T02:55:36.556Z,0
2017-08-28T02:56:37.952Z,0
2017-08-28T02:57:39.352Z,0
2017-08-28T02:58:40.773Z,0
2017-08-28T02:59:42.213Z,0
2017-08-28T03:00:43.653Z,0
2017-08-28T03:01:45.049Z,0
2017-08-28T03:02:46.536Z,0
2017-08-28T03:03:47.935Z,0
2017-08-28T03:04:49.332Z,0
2017-08-28T03:05:50.756Z,0
2017-08-28T03:06:52.154Z,0
2017-08-28T03:07:53.560Z,0
2017-08-28T03:08:55.075Z,0
2017-08-28T03:09:56.474Z,0
2017-08-28T03:10:57.954Z,0
2017-08-28T03:11:59.358Z,0
2017-08-28T03:13:00.761Z,0
2017-08-28T03:14:02.278Z,0
2017-08-28T03:15:03.686Z,0
2017-08-28T03:16:05.089Z,0
2017-08-28T03:17:06.597Z,0
2017-08-28T03:18:08.017Z,0
2017-08-28T03:19:09.447Z,0
2017-08-28T03:20:10.921Z,0
2017-08-28T03:21:12.328Z,0
2017-08-28T03:22:13.735Z,0
2017-08-28T03:23:15.239Z,0
2017-08-28T03:24:16.639Z,0
2017-08-28T03:25:18.502Z,0
2017-08-28T03:26:19.903Z,0
2017-08-28T03:27:21.410Z,0
2017-08-28T03:28:22.806Z,0
2017-08-28T03:29:24.207Z,0
2017-08-28T03:30:25.732Z,0
2017-08-28T03:31:27.129Z,0
2017-08-28T03:32:28.525Z,0
2017-08-28T03:33:30.052Z,0
2017-08-28T03:34:31.451Z,0
2017-08-28T03:35:32.847Z,0
2017-08-28T03:36:34.373Z,0
2017-08-28T03:37:35.771Z,0
2017-08-28T03:38:37.166Z,0
2017-08-28T03:39:38.692Z,0
2017-08-28T03:40:40.102Z,0
2017-08-28T03:41:41.499Z,0
2017-08-28T03:42:43.018Z,0
2017-08-28T03:43:44.424Z,0
2017-08-28T03:44:45.823Z,0
2017-08-28T03:45:47.337Z,0
2017-08-28T03:46:48.735Z,0
2017-08-28T03:47:50.134Z,0
2017-08-28T03:48:51.657Z,0
2017-08-28T03:49:53.066Z,0
2017-08-28T03:50:54.856Z,0
2017-08-28T03:51:56.387Z,0
2017-08-28T03:52:57.785Z,0
2017-08-28T03:53:59.184Z,0
2017-08-28T03:55:00.708Z,0
2017-08-28T03:56:02.111Z,0
2017-08-28T03:57:03.557Z,0
2017-08-28T03:58:05.033Z,0
2017-08-28T03:59:06.458Z,0
2017-08-28T04:00:07.856Z,0
2017-08-28T04:01:09.350Z,0
2017-08-28T04:02:11.126Z,0
2017-08-28T04:03:12.526Z,0
2017-08-28T04:04:14.082Z,0
2017-08-28T04:05:15.498Z,0
2017-08-28T04:06:16.896Z,0
2017-08-28T04:07:18.403Z,0
2017-08-28T04:08:19.800Z,0
2017-08-28T04:09:21.199Z,0
2017-08-28T04:10:22.727Z,0
2017-08-28T04:11:24.122Z,0
2017-08-28T04:12:25.606Z,0
2017-08-28T04:13:27.003Z,0
2017-08-28T04:14:28.485Z,0
2017-08-28T04:15:29.882Z,0
2017-08-28T04:16:31.364Z,0
2017-08-28T04:17:32.784Z,0
2017-08-28T04:18:34.247Z,0
2017-08-28T04:19:35.653Z,0
2017-08-28T04:20:38.454Z,0
2017-08-28T04:21:39.999Z,0
2017-08-28T04:22:41.399Z,0
2017-08-28T04:23:42.797Z,0
2017-08-28T04:24:44.322Z,0
2017-08-28T04:25:45.723Z,0
2017-08-28T04:26:47.202Z,0
2017-08-28T04:27:48.599Z,0
2017-08-28T04:28:50.083Z,0
2017-08-28T04:29:51.478Z,0
2017-08-28T04:30:52.964Z,0
2017-08-28T04:31:54.364Z,0
2017-08-28T04:32:55.846Z,0
2017-08-28T04:33:57.245Z,0
2017-08-28T04:34:58.734Z,0
2017-08-28T04:36:00.134Z,0
2017-08-28T04:37:01.606Z,0
2017-08-28T04:38:03.007Z,0
2017-08-28T04:39:04.493Z,0
2017-08-28T04:40:05.889Z,0
2017-08-28T04:41:07.346Z,0
2017-08-28T04:42:08.744Z,0
2017-08-28T04:43:10.226Z,0
2017-08-28T04:44:11.623Z,0
2017-08-28T04:45:13.113Z,0
2017-08-28T04:46:14.513Z,5
2017-08-28T04:47:15.986Z,5
2017-08-28T04:48:17.388Z,5
2017-08-28T04:49:18.869Z,5
2017-08-28T04:50:20.265Z,5
2017-08-28T04:51:21.749Z,5
2017-08-28T04:52:23.167Z,5
2017-08-28T04:53:24.635Z,5
2017-08-28T04:54:26.039Z,5
2017-08-28T04:55:27.513Z,5
2017-08-28T04:56:28.913Z,5
2017-08-28T04:57:30.322Z,5
2017-08-28T04:58:31.725Z,10
2017-08-28T04:59:33.276Z,10
2017-08-28T05:00:34.676Z,10
2017-08-28T05:01:36.156Z,10
2017-08-28T05:02:37.562Z,10
2017-08-28T05:03:39.041Z,10
2017-08-28T05:04:40.439Z,10
2017-08-28T05:05:41.918Z,10
2017-08-28T05:06:43.317Z,10
2017-08-28T05:07:44.800Z,10
2017-08-28T05:08:46.203Z,15
2017-08-28T05:09:47.681Z,15
2017-08-28T05:10:49.084Z,15
2017-08-28T05:11:50.573Z,15
2017-08-28T05:12:51.970Z,15
2017-08-28T05:13:53.449Z,15
2017-08-28T05:14:54.853Z,15
2017-08-28T05:15:56.254Z,20
2017-08-28T05:16:57.765Z,20
2017-08-28T05:17:59.168Z,20
2017-08-28T05:19:00.581Z,20
2017-08-28T05:20:02.086Z,20
2017-08-28T05:21:03.488Z,20
2017-08-28T05:22:04.969Z,20
2017-08-28T05:23:06.371Z,25
2017-08-28T05:24:07.857Z,25
2017-08-28T05:25:09.259Z,25
2017-08-28T05:26:10.687Z,25
2017-08-28T05:27:12.171Z,25
2017-08-28T05:28:13.572Z,25
2017-08-28T05:29:14.974Z,25
2017-08-28T05:30:16.492Z,30
2017-08-28T05:31:17.894Z,30
2017-08-28T05:32:19.381Z,30
2017-08-28T05:33:20.785Z,30
2017-08-28T05:34:22.255Z,30
2017-08-28T05:35:23.656Z,30
2017-08-28T05:36:25.137Z,30
2017-08-28T05:37:26.538Z,30
2017-08-28T05:38:28.016Z,35
2017-08-28T05:39:29.421Z,35
2017-08-28T05:40:31.199Z,35
2017-08-28T05:41:32.746Z,35
2017-08-28T05:42:34.147Z,35
2017-08-28T05:43:35.554Z,35
2017-08-28T05:44:37.070Z,35
2017-08-28T05:45:38.472Z,35
2017-08-28T05:46:39.970Z,35
2017-08-28T05:47:41.366Z,40
2017-08-28T05:48:42.829Z,40
2017-08-28T05:49:44.236Z,40
2017-08-28T05:50:45.712Z,40
2017-08-28T05:51:47.116Z,40
2017-08-28T05:52:48.597Z,40
2017-08-28T05:53:49.997Z,40
2017-08-28T05:54:51.414Z,40
2017-08-28T05:55:52.947Z,45
2017-08-28T05:56:54.361Z,45
2017-08-28T05:57:55.763Z,45
2017-08-28T05:58:57.204Z,45
2017-08-28T05:59:58.679Z,45
2017-08-28T06:01:00.078Z,45
2017-08-28T06:02:01.480Z,45
2017-08-28T06:03:03.000Z,45
2017-08-28T06:04:04.400Z,45
2017-08-28T06:05:05.800Z,45
2017-08-28T06:06:07.324Z,45
2017-08-28T06:07:08.722Z,45
2017-08-28T06:08:10.124Z,45
2017-08-28T06:09:11.646Z,50
2017-08-28T06:10:13.060Z,50
2017-08-28T06:11:14.463Z,50
2017-08-28T06:12:15.977Z,50
2017-08-28T06:13:17.381Z,50
2017-08-28T06:14:18.845Z,55
2017-08-28T06:15:20.245Z,55
2017-08-28T06:16:21.726Z,55
2017-08-28T06:17:23.129Z,55
2017-08-28T06:18:24.612Z,55
2017-08-28T06:19:26.015Z,55
2017-08-28T06:20:27.495Z,55
2017-08-28T06:21:28.897Z,60
2017-08-28T06:22:30.372Z,60
2017-08-28T06:23:31.776Z,60
2017-08-28T06:24:33.253Z,60
2017-08-28T06:25:34.655Z,65
2017-08-28T06:26:36.055Z,65
2017-08-28T06:27:37.576Z,65
2017-08-28T06:28:38.980Z,65
2017-08-28T06:29:40.381Z,65
2017-08-28T06:30:41.897Z,70
2017-08-28T06:31:43.300Z,70
2017-08-28T06:32:44.703Z,70
2017-08-28T06:33:46.218Z,75
2017-08-28T06:34:47.622Z,75
2017-08-28T06:35:49.026Z,75
2017-08-28T06:36:50.541Z,75
2017-08-28T06:37:51.940Z,75
2017-08-28T06:38:53.426Z,80
2017-08-28T06:39:54.821Z,80
2017-08-28T06:40:56.229Z,80
2017-08-28T06:41:57.742Z,80
2017-08-28T06:42:59.143Z,85
2017-08-28T06:44:00.544Z,85
2017-08-28T06:45:02.062Z,80
2017-08-28T06:46:03.848Z,80
2017-08-28T06:47:05.394Z,85
2017-08-28T06:48:06.795Z,85
2017-08-28T06:49:08.250Z,85
2017-08-28T06:50:09.649Z,85
2017-08-28T06:51:11.047Z,85
2017-08-28T06:52:12.939Z,90
2017-08-28T06:53:14.344Z,90
2017-08-28T06:54:15.742Z,90
2017-08-28T06:55:17.183Z,95
2017-08-28T06:56:18.586Z,95
2017-08-28T06:57:20.067Z,95
2017-08-28T06:58:21.466Z,95
2017-08-28T06:59:22.947Z,100
2017-08-28T07:00:24.349Z,100
2017-08-28T07:01:25.830Z,100
2017-08-28T07:02:27.237Z,100
2017-08-28T07:03:28.668Z,105
2017-08-28T07:04:30.147Z,105
2017-08-28T07:05:31.567Z,105
2017-08-28T07:06:32.968Z,110
2017-08-28T07:07:34.469Z,110
2017-08-28T07:08:35.872Z,110
2017-08-28T07:09:37.274Z,110
2017-08-28T07:10:38.796Z,115
2017-08-28T07:11:40.194Z,115
2017-08-28T07:12:41.671Z,115
2017-08-28T07:13:43.072Z,115
2017-08-28T07:14:44.550Z,115
2017-08-28T07:15:45.955Z,115
2017-08-28T07:16:47.357Z,115
2017-08-28T07:17:48.895Z,115
2017-08-28T07:18:50.299Z,115
2017-08-28T07:19:51.704Z,120
2017-08-28T07:20:53.189Z,120
2017-08-28T07:21:54.595Z,120
2017-08-28T07:22:56.382Z,125
2017-08-28T07:23:58.198Z,125
2017-08-28T07:24:59.988Z,125
2017-08-28T07:26:01.394Z,125
2017-08-28T07:27:02.860Z,130
2017-08-28T07:28:04.260Z,130
2017-08-28T07:29:05.737Z,130
2017-08-28T07:30:07.178Z,130
2017-08-28T07:31:08.620Z,135
2017-08-28T07:32:10.024Z,135
2017-08-28T07:33:11.499Z,135
2017-08-28T07:34:12.901Z,140
2017-08-28T07:35:14.379Z,140
2017-08-28T07:36:15.785Z,140
2017-08-28T07:37:17.188Z,145
2017-08-28T07:38:18.700Z,145
2017-08-28T07:39:20.106Z,145
2017-08-28T07:40:21.507Z,145
2017-08-28T07:41:23.030Z,145
2017-08-28T07:42:24.429Z,145
2017-08-28T07:43:25.828Z,150
2017-08-28T07:44:27.345Z,150
2017-08-28T07:45:28.747Z,150
2017-08-28T07:46:30.154Z,150
2017-08-28T07:47:31.667Z,150
2017-08-28T07:48:33.082Z,155
2017-08-28T07:49:34.484Z,155
2017-08-28T07:50:35.985Z,155
2017-08-28T07:51:37.388Z,160
2017-08-28T07:52:38.791Z,160
2017-08-28T07:53:40.304Z,160
2017-08-28T07:54:41.707Z,165
2017-08-28T07:55:43.110Z,165
2017-08-28T07:56:44.626Z,170
2017-08-28T07:57:46.028Z,170
2017-08-28T07:58:47.510Z,170
2017-08-28T07:59:48.944Z,175
2017-08-28T08:00:50.387Z,175
2017-08-28T08:01:51.801Z,175
2017-08-28T08:02:53.205Z,180
2017-08-28T08:03:54.708Z,180
2017-08-28T08:04:56.113Z,180
2017-08-28T08:05:57.517Z,180
2017-08-28T08:06:59.030Z,180
2017-08-28T08:08:00.439Z,180
2017-08-28T08:09:01.852Z,185
2017-08-28T08:10:03.353Z,185
2017-08-28T08:11:04.756Z,185
2017-08-28T08:12:06.161Z,190
2017-08-28T08:13:07.672Z,195
2017-08-28T08:14:09.463Z,190
2017-08-28T08:15:10.962Z,200
2017-08-28T08:16:12.324Z,200
2017-08-28T08:17:13.729Z,200
2017-08-28T08:18:15.179Z,200
2017-08-28T08:19:16.584Z,205
2017-08-28T08:20:17.993Z,210
2017-08-28T08:21:19.500Z,205
2017-08-28T08:22:20.906Z,205
2017-08-28T08:23:22.382Z,205
2017-08-28T08:24:23.787Z,210
2017-08-28T08:25:25.262Z,210
2017-08-28T08:26:26.668Z,215
2017-08-28T08:27:28.149Z,215
2017-08-28T08:28:29.562Z,215
2017-08-28T08:29:31.024Z,215
2017-08-28T08:30:32.442Z,215
2017-08-28T08:31:33.905Z,215
2017-08-28T08:32:35.807Z,220
2017-08-28T08:33:37.330Z,220
2017-08-28T08:34:38.708Z,220
2017-08-28T08:35:40.179Z,225
2017-08-28T08:36:41.602Z,225
2017-08-28T08:37:43.013Z,230
2017-08-28T08:38:44.500Z,235
2017-08-28T08:39:45.904Z,235
2017-08-28T08:40:47.380Z,240
2017-08-28T08:41:48.787Z,245
2017-08-28T08:42:50.200Z,250
2017-08-28T08:43:51.701Z,260
2017-08-28T08:44:53.103Z,260
2017-08-28T08:45:54.581Z,260
2017-08-28T08:46:56.006Z,250
2017-08-28T08:47:57.393Z,255
2017-08-28T08:48:58.895Z,255
2017-08-28T08:50:00.315Z,255
2017-08-28T08:51:01.740Z,260
2017-08-28T08:52:03.238Z,250
2017-08-28T08:53:04.639Z,255
2017-08-28T08:54:06.106Z,255
2017-08-28T08:55:07.512Z,265
2017-08-28T08:56:08.985Z,265
2017-08-28T08:57:10.389Z,265
2017-08-28T08:58:11.796Z,265
2017-08-28T08:59:13.307Z,265
2017-08-28T09:00:14.713Z,260
2017-08-28T09:01:16.156Z,265
2017-08-28T09:02:17.628Z,285
2017-08-28T09:03:19.046Z,320
2017-08-28T09:04:20.447Z,440
2017-08-28T09:05:21.947Z,585
2017-08-28T09:06:23.353Z,415
2017-08-28T09:07:24.760Z,520
2017-08-28T09:08:26.270Z,905
2017-08-28T09:09:27.678Z,950
2017-08-28T09:10:29.152Z,665
2017-08-28T09:11:30.558Z,695
2017-08-28T09:12:31.975Z,950
2017-08-28T09:13:33.382Z,990
2017-08-28T09:14:34.822Z,875
2017-08-28T09:15:36.251Z,885
2017-08-28T09:16:37.657Z,675
2017-08-28T09:17:39.072Z,625
2017-08-28T09:18:40.570Z,860
2017-08-28T09:19:41.979Z,1280
2017-08-28T09:20:43.385Z,1225
2017-08-28T09:21:44.890Z,1000
2017-08-28T09:22:46.298Z,680
2017-08-28T09:23:47.703Z,625
2017-08-28T09:24:49.211Z,490
2017-08-28T09:25:50.636Z,380
2017-08-28T09:26:52.483Z,410
2017-08-28T09:27:53.899Z,390
2017-08-28T09:28:55.382Z,380
2017-08-28T09:29:56.788Z,370
2017-08-28T09:30:58.202Z,390
2017-08-28T09:31:59.612Z,500
2017-08-28T09:33:01.043Z,460
2017-08-28T09:34:02.454Z,385
2017-08-28T09:35:03.952Z,415
2017-08-28T09:36:05.360Z,405
2017-08-28T09:37:06.815Z,365
2017-08-28T09:38:08.221Z,345
2017-08-28T09:39:09.682Z,335
2017-08-28T09:40:11.105Z,340
2017-08-28T09:41:12.564Z,365
2017-08-28T09:42:14.106Z,355
2017-08-28T09:43:15.507Z,340
2017-08-28T09:44:16.922Z,340
2017-08-28T09:45:18.328Z,340
2017-08-28T09:46:19.736Z,340
2017-08-28T09:47:21.150Z,340
2017-08-28T09:48:22.563Z,345
2017-08-28T09:49:23.979Z,340
2017-08-28T09:50:25.389Z,365
2017-08-28T09:51:26.803Z,365
2017-08-28T09:52:28.212Z,355
2017-08-28T09:53:29.636Z,360
2017-08-28T09:54:31.048Z,360
2017-08-28T09:55:32.465Z,390
2017-08-28T09:56:33.874Z,395
2017-08-28T09:57:35.293Z,355
2017-08-28T09:58:36.699Z,360
2017-08-28T09:59:38.118Z,360
2017-08-28T10:00:39.550Z,350
2017-08-28T10:01:40.966Z,360
2017-08-28T10:02:42.389Z,360
2017-08-28T10:03:43.785Z,375
2017-08-28T10:04:45.201Z,385
2017-08-28T10:05:46.609Z,395
2017-08-28T10:06:48.012Z,440
2017-08-28T10:07:49.431Z,440
2017-08-28T10:08:50.839Z,735
2017-08-28T10:09:52.250Z,700
2017-08-28T10:10:53.663Z,490
2017-08-28T10:11:55.116Z,605
2017-08-28T10:12:56.528Z,695
2017-08-28T10:13:58.041Z,600
2017-08-28T10:14:59.458Z,465
2017-08-28T10:16:00.871Z,485
2017-08-28T10:17:02.366Z,535
2017-08-28T10:18:03.777Z,790
2017-08-28T10:19:05.195Z,645
2017-08-28T10:20:06.676Z,760
2017-08-28T10:21:08.117Z,595
2017-08-28T10:22:09.562Z,480
2017-08-28T10:23:10.972Z,495
2017-08-28T10:24:12.395Z,640
2017-08-28T10:25:13.883Z,645
2017-08-28T10:26:15.291Z,515
2017-08-28T10:27:16.697Z,545
2017-08-28T10:28:18.205Z,990
2017-08-28T10:29:19.617Z,1590
2017-08-28T10:30:21.576Z,1825
2017-08-28T10:31:23.039Z,1765
2017-08-28T10:32:24.451Z,1600
2017-08-28T10:33:25.918Z,1555
2017-08-28T10:34:27.330Z,1780
2017-08-28T10:35:28.743Z,2185
2017-08-28T10:36:30.240Z,2640
2017-08-28T10:37:31.653Z,2640
2017-08-28T10:38:33.067Z,2295
2017-08-28T10:39:34.481Z,1925
2017-08-28T10:40:36.001Z,1475
2017-08-28T10:41:37.418Z,1925
2017-08-28T10:42:38.881Z,2325
2017-08-28T10:43:40.307Z,1935
2017-08-28T10:44:41.760Z,1105
2017-08-28T10:45:43.176Z,1175
2017-08-28T10:46:44.644Z,1885
2017-08-28T10:47:46.054Z,1825
2017-08-28T10:48:47.468Z,1480
2017-08-28T10:49:48.962Z,1595
2017-08-28T10:50:50.383Z,1730
2017-08-28T10:51:51.789Z,1320
2017-08-28T10:52:53.305Z,1365
2017-08-28T10:53:54.739Z,1480
2017-08-28T10:54:56.149Z,920
2017-08-28T10:55:57.611Z,1435
2017-08-28T10:56:59.059Z,1960
2017-08-28T10:58:00.484Z,1905
2017-08-28T10:59:01.901Z,1510
2017-08-28T11:00:03.369Z,1435
2017-08-28T11:01:04.809Z,2025
2017-08-28T11:02:06.249Z,1680
2017-08-28T11:03:07.662Z,1065
2017-08-28T11:04:09.137Z,590
2017-08-28T11:05:10.550Z,535
2017-08-28T11:06:12.010Z,540
2017-08-28T11:07:13.429Z,650
2017-08-28T11:08:14.892Z,1425
2017-08-28T11:09:16.734Z,1455
2017-08-28T11:10:18.149Z,1710
2017-08-28T11:11:19.633Z,1885
2017-08-28T11:12:21.050Z,1980
2017-08-28T11:13:22.464Z,1480
2017-08-28T11:14:23.946Z,1160
2017-08-28T11:15:25.360Z,1305
2017-08-28T11:16:26.776Z,1325
2017-08-28T11:17:28.271Z,1795
2017-08-28T11:18:29.686Z,2395
2017-08-28T11:19:31.103Z,2820
2017-08-28T11:20:32.584Z,3185
2017-08-28T11:21:33.998Z,3255
2017-08-28T11:22:35.417Z,1870
2017-08-28T11:23:36.907Z,1300
2017-08-28T11:24:38.349Z,1050
2017-08-28T11:25:39.786Z,1400
2017-08-28T11:26:41.203Z,1915
2017-08-28T11:27:42.667Z,2035
2017-08-28T11:28:44.107Z,1840
2017-08-28T11:29:45.548Z,2060
2017-08-28T11:30:46.962Z,1860
2017-08-28T11:31:48.430Z,1945
2017-08-28T11:32:49.844Z,1755
2017-08-28T11:33:51.314Z,1850
2017-08-28T11:34:52.730Z,1930
2017-08-28T11:35:54.144Z,1620
2017-08-28T11:36:55.632Z,1045
2017-08-28T11:37:57.048Z,930
2017-08-28T11:38:58.463Z,955
2017-08-28T11:40:00.333Z,1085
2017-08-28T11:41:01.747Z,1205
2017-08-28T11:42:03.159Z,1285
2017-08-28T11:43:04.681Z,1455
2017-08-28T11:44:06.140Z,2030
2017-08-28T11:45:07.548Z,2230
2017-08-28T11:46:09.000Z,2135
2017-08-28T11:47:10.442Z,1995
2017-08-28T11:48:11.856Z,2500
2017-08-28T11:49:13.324Z,2645
2017-08-28T11:50:14.738Z,2615
2017-08-28T11:51:16.204Z,2445
2017-08-28T11:52:17.618Z,2475
2017-08-28T11:53:19.083Z,2785
2017-08-28T11:54:20.506Z,2975
2017-08-28T11:55:21.964Z,2715
2017-08-28T11:56:23.379Z,2595
2017-08-28T11:57:25.868Z,2405
2017-08-28T11:58:27.286Z,2340
2017-08-28T11:59:28.751Z,2405
2017-08-28T12:00:30.206Z,2495
2017-08-28T12:01:31.735Z,2545
2017-08-28T12:02:33.147Z,2485
2017-08-28T12:03:34.613Z,2220
2017-08-28T12:04:36.036Z,1725
2017-08-28T12:05:37.510Z,1255
2017-08-28T12:06:38.923Z,795
2017-08-28T12:07:40.380Z,650
2017-08-28T12:08:41.809Z,585
2017-08-28T12:09:43.222Z,540
2017-08-28T12:10:44.694Z,520
2017-08-28T12:11:46.108Z,515
2017-08-28T12:12:47.547Z,515
2017-08-28T12:13:49.016Z,505
2017-08-28T12:14:50.429Z,540
2017-08-28T12:15:51.838Z,600
2017-08-28T12:16:53.337Z,770
2017-08-28T12:17:54.749Z,1190
2017-08-28T12:18:56.219Z,1630
2017-08-28T12:19:57.631Z,1720
2017-08-28T12:20:59.042Z,2020
2017-08-28T12:22:00.540Z,2050
2017-08-28T12:23:01.957Z,2030
2017-08-28T12:24:03.388Z,2025
2017-08-28T12:25:04.861Z,2115
2017-08-28T12:26:06.275Z,2175
2017-08-28T12:27:07.694Z,1990
2017-08-28T12:28:09.182Z,1990
2017-08-28T12:29:10.596Z,2000
2017-08-28T12:30:12.002Z,2135
2017-08-28T12:31:13.502Z,2175
2017-08-28T12:32:14.915Z,2210
2017-08-28T12:33:16.327Z,2205
2017-08-28T12:34:17.823Z,2035
2017-08-28T12:35:19.241Z,2070
2017-08-28T12:36:20.654Z,1780
2017-08-28T12:37:22.151Z,1690
2017-08-28T12:38:23.562Z,1445
2017-08-28T12:39:25.086Z,935
2017-08-28T12:40:26.439Z,745
2017-08-28T12:41:27.853Z,1045
2017-08-28T12:42:29.344Z,905
2017-08-28T12:43:30.754Z,810
2017-08-28T12:44:32.165Z,720
2017-08-28T12:45:33.675Z,745
2017-08-28T12:46:35.076Z,745
2017-08-28T12:47:36.548Z,775
2017-08-28T12:48:37.961Z,885
2017-08-28T12:49:39.429Z,1085
2017-08-28T12:50:40.844Z,1245
2017-08-28T12:51:42.309Z,1270
2017-08-28T12:52:43.719Z,1125
2017-08-28T12:53:45.191Z,1040
2017-08-28T12:54:46.634Z,1020
2017-08-28T12:55:48.046Z,1055
2017-08-28T12:56:49.512Z,1040
2017-08-28T12:57:50.944Z,940
2017-08-28T12:58:52.358Z,935
2017-08-28T12:59:53.832Z,1020
2017-08-28T13:00:55.247Z,1150
2017-08-28T13:01:56.714Z,1215
2017-08-28T13:02:58.121Z,990
2017-08-28T13:03:59.593Z,530
2017-08-28T13:05:01.002Z,425
2017-08-28T13:06:02.419Z,525
2017-08-28T13:07:03.914Z,600
2017-08-28T13:08:05.329Z,690
2017-08-28T13:09:06.731Z,605
2017-08-28T13:10:08.235Z,610
2017-08-28T13:11:09.644Z,520
2017-08-28T13:12:11.051Z,415
2017-08-28T13:13:12.928Z,390
2017-08-28T13:14:14.339Z,380
2017-08-28T13:15:15.746Z,370
2017-08-28T13:16:17.185Z,355
2017-08-28T13:17:18.594Z,345
2017-08-28T13:18:19.998Z,330
2017-08-28T13:19:21.506Z,330
2017-08-28T13:20:22.915Z,325
2017-08-28T13:21:24.321Z,305
2017-08-28T13:22:25.826Z,305
2017-08-28T13:23:27.237Z,300
2017-08-28T13:24:28.644Z,285
2017-08-28T13:25:30.149Z,280
2017-08-28T13:26:31.558Z,270
2017-08-28T13:27:33.028Z,260
2017-08-28T13:28:34.434Z,250
2017-08-28T13:29:35.911Z,245
2017-08-28T13:30:37.339Z,245
2017-08-28T13:31:38.776Z,240
2017-08-28T13:32:40.224Z,235
2017-08-28T13:33:41.641Z,225
2017-08-28T13:34:43.049Z,220
2017-08-28T13:35:44.552Z,215
2017-08-28T13:36:45.965Z,210
2017-08-28T13:37:47.377Z,205
2017-08-28T13:38:48.871Z,205
2017-08-28T13:39:50.277Z,200
2017-08-28T13:40:51.726Z,195
2017-08-28T13:41:53.192Z,190
2017-08-28T13:42:54.596Z,190
2017-08-28T13:43:56.002Z,185
2017-08-28T13:44:57.514Z,180
2017-08-28T13:45:58.970Z,175
2017-08-28T13:47:00.371Z,165
2017-08-28T13:48:01.781Z,170
2017-08-28T13:49:03.480Z,175
2017-08-28T13:50:05.493Z,175
2017-08-28T13:51:07.468Z,180
2017-08-28T13:52:10.572Z,175
2017-08-28T13:53:12.481Z,175
2017-08-28T13:54:13.887Z,175
2017-08-28T13:55:15.295Z,175
2017-08-28T13:56:16.702Z,170
2017-08-28T13:57:18.107Z,170
2017-08-28T13:58:19.542Z,165
2017-08-28T13:59:20.954Z,160
2017-08-28T14:00:22.363Z,155
2017-08-28T14:01:23.770Z,160
2017-08-28T14:02:25.171Z,150
2017-08-28T14:03:26.583Z,145
2017-08-28T14:04:27.988Z,140
2017-08-28T14:05:29.397Z,145
2017-08-28T14:06:30.806Z,140
2017-08-28T14:07:32.221Z,140
2017-08-28T14:08:33.627Z,140
2017-08-28T14:09:35.051Z,140
2017-08-28T14:10:36.454Z,135
2017-08-28T14:11:37.946Z,135
2017-08-28T14:12:39.389Z,130
2017-08-28T14:13:40.809Z,130
2017-08-28T14:14:42.245Z,130
2017-08-28T14:15:43.690Z,130
2017-08-28T14:16:45.096Z,130
2017-08-28T14:17:46.502Z,130
2017-08-28T14:18:48.024Z,125
2017-08-28T14:19:49.820Z,125
2017-08-28T14:20:51.620Z,130
2017-08-28T14:21:53.050Z,130
2017-08-28T14:22:54.469Z,125
2017-08-28T14:23:55.873Z,125
2017-08-28T14:24:57.391Z,125
2017-08-28T14:25:58.837Z,125